createdAt,value
2022-09-07T00:02:09.252Z,2.70
2022-09-07T00:04:39.954Z,4.63
2022-09-07T00:07:10.598Z,3.53
2022-09-07T00:09:41.517Z,7.13
2022-09-07T00:12:12.187Z,4.30
2022-09-07T00:14:42.927Z,3.17
2022-09-07T00:17:13.591Z,1.90
2022-09-07T00:19:44.554Z,3.13
2022-09-07T00:22:15.214Z,2.50
2022-09-07T00:24:45.967Z,3.00
2022-09-07T00:27:16.600Z,4.77
2022-09-07T00:29:47.611Z,7.90
2022-09-07T00:32:18.295Z,3.93
2022-09-07T00:34:49.656Z,4.70
2022-09-07T00:37:20.307Z,4.53
2022-09-07T00:39:51.174Z,2.37
2022-09-07T00:42:23.381Z,4.53
2022-09-07T00:45:13.056Z,1.83
2022-09-07T00:47:49.680Z,4.33
2022-09-07T00:50:24.099Z,4.10
2022-09-07T00:52:58.405Z,3.07
2022-09-07T00:55:30.822Z,2.90
2022-09-07T00:58:02.384Z,3.00
2022-09-07T01:00:33.441Z,3.30
2022-09-07T01:03:05.789Z,6.47
2022-09-07T01:05:39.644Z,3.17
2022-09-07T01:08:11.194Z,7.03
2022-09-07T01:10:42.189Z,4.53
2022-09-07T01:13:12.834Z,1.77
2022-09-07T01:15:47.611Z,2.33
2022-09-07T01:18:24.763Z,3.33
2022-09-07T01:21:18.157Z,2.53
2022-09-07T01:24:16.974Z,1.87
2022-09-07T01:27:01.824Z,2.30
2022-09-07T01:29:35.941Z,2.13
2022-09-07T01:32:11.488Z,2.90
2022-09-07T01:34:44.337Z,2.43
2022-09-07T01:37:18.977Z,3.90
2022-09-07T01:39:52.898Z,2.77
2022-09-07T01:42:26.571Z,4.93
2022-09-07T01:44:59.541Z,2.47
2022-09-07T01:47:33.846Z,1.43
2022-09-07T01:50:08.873Z,2.80
2022-09-07T01:52:43.210Z,2.67
2022-09-07T01:55:16.809Z,3.90
2022-09-07T01:57:51.145Z,3.97
2022-09-07T02:00:23.384Z,3.43
2022-09-07T02:02:56.808Z,3.77
2022-09-07T02:05:30.810Z,2.30
2022-09-07T02:08:04.769Z,4.10
2022-09-07T02:10:39.194Z,2.43
2022-09-07T02:13:12.962Z,3.50
2022-09-07T02:15:48.204Z,3.37
2022-09-07T02:18:20.299Z,2.37
2022-09-07T02:20:53.591Z,6.40
2022-09-07T02:23:27.424Z,9.07
2022-09-07T02:26:01.155Z,4.70
2022-09-07T02:28:34.507Z,3.37
2022-09-07T02:31:05.710Z,3.03
2022-09-07T02:33:55.572Z,5.00
2022-09-07T02:36:29.433Z,4.00
2022-09-07T02:39:00.450Z,1.57
2022-09-07T02:41:36.867Z,5.23
2022-09-07T02:44:10.419Z,7.37
2022-09-07T02:50:20.002Z,3.57
2022-09-07T02:52:55.330Z,3.50
2022-09-07T02:55:30.617Z,4.60
2022-09-07T02:58:07.820Z,3.63
2022-09-07T03:00:41.891Z,3.30
2022-09-07T03:03:17.268Z,7.30
2022-09-07T03:05:51.134Z,6.87
2022-09-07T03:08:25.448Z,4.83
2022-09-07T03:10:57.176Z,2.93
2022-09-07T03:13:29.788Z,3.33
2022-09-07T03:16:00.683Z,10.60
2022-09-07T03:18:31.680Z,5.03
2022-09-07T03:21:02.398Z,5.33
2022-09-07T03:23:33.575Z,4.97
2022-09-07T03:26:04.683Z,5.23
2022-09-07T03:28:35.314Z,6.37
2022-09-07T03:31:06.295Z,4.87
2022-09-07T03:33:37.101Z,3.27
2022-09-07T03:36:08.131Z,4.83
2022-09-07T03:38:38.812Z,8.70
2022-09-07T03:41:10.083Z,4.93
2022-09-07T03:43:40.743Z,7.43
2022-09-07T03:46:11.958Z,6.57
2022-09-07T03:48:42.655Z,5.10
2022-09-07T03:51:14.342Z,1.97
2022-09-07T03:53:46.726Z,3.13
2022-09-07T03:56:20.436Z,10.17
2022-09-07T03:58:52.470Z,9.67
2022-09-07T04:01:24.874Z,2.10
2022-09-07T04:04:02.011Z,7.57
2022-09-07T04:06:30.391Z,4.60
2022-09-07T04:09:04.463Z,6.13
2022-09-07T04:11:36.102Z,10.73
2022-09-07T04:14:07.293Z,4.23
2022-09-07T04:16:38.166Z,5.83
2022-09-07T04:19:27.726Z,5.23
2022-09-07T04:21:58.439Z,4.20
2022-09-07T04:24:29.542Z,7.20
2022-09-07T04:27:00.494Z,2.90
2022-09-07T04:29:31.176Z,7.40
2022-09-07T04:32:01.834Z,6.63
2022-09-07T04:34:32.741Z,7.07
2022-09-07T04:37:03.430Z,7.33
2022-09-07T04:39:34.105Z,7.77
2022-09-07T04:42:05.180Z,6.67
2022-09-07T04:44:36.054Z,4.23
2022-09-07T04:47:07.575Z,2.80
2022-09-07T04:49:38.645Z,3.83
2022-09-07T04:52:09.404Z,3.03
2022-09-07T04:54:40.070Z,5.57
2022-09-07T04:57:12.918Z,4.43
2022-09-07T04:59:43.767Z,6.93
2022-09-07T05:02:14.568Z,6.73
2022-09-07T05:04:45.439Z,3.00
2022-09-07T05:07:16.235Z,8.60
2022-09-07T05:09:46.914Z,6.60
2022-09-07T05:12:17.699Z,6.40
2022-09-07T05:14:48.340Z,7.43
2022-09-07T05:17:19.498Z,3.90
2022-09-07T05:19:51.327Z,4.03
2022-09-07T05:22:22.494Z,5.30
2022-09-07T05:24:53.109Z,3.30
2022-09-07T05:27:24.613Z,4.90
2022-09-07T05:32:27.664Z,3.00
2022-09-07T05:34:58.315Z,5.20
2022-09-07T05:37:28.975Z,4.20
2022-09-07T05:39:59.701Z,4.40
2022-09-07T05:42:31.212Z,3.80
2022-09-07T05:45:02.103Z,3.43
2022-09-07T05:50:11.995Z,4.43
2022-09-07T05:52:43.309Z,4.57
2022-09-07T05:55:29.527Z,4.10
2022-09-07T05:57:46.281Z,4.33
2022-09-07T06:00:17.664Z,7.33
2022-09-07T06:02:48.360Z,5.93
2022-09-07T06:05:19.267Z,3.53
2022-09-07T06:07:50.546Z,7.27
2022-09-07T06:12:54.354Z,6.77
2022-09-07T06:15:24.992Z,7.13
2022-09-07T06:17:55.640Z,3.60
2022-09-07T06:20:26.640Z,4.97
2022-09-07T06:22:57.455Z,9.53
2022-09-07T06:25:28.100Z,5.00
2022-09-07T06:27:59.752Z,6.70
2022-09-07T06:30:30.457Z,5.57
2022-09-07T06:33:01.116Z,4.43
2022-09-07T06:35:31.800Z,5.00
2022-09-07T06:38:02.727Z,4.07
2022-09-07T06:40:35.807Z,7.40
2022-09-07T06:43:06.560Z,5.03
2022-09-07T06:45:37.443Z,4.40
2022-09-07T06:48:08.324Z,5.17
2022-09-07T06:50:39.830Z,3.63
2022-09-07T06:55:46.784Z,3.40
2022-09-07T06:58:17.407Z,2.13
2022-09-07T07:00:48.138Z,6.60
2022-09-07T07:03:19.225Z,9.67
2022-09-07T07:05:54.610Z,6.43
2022-09-07T07:08:27.044Z,3.40
2022-09-07T07:10:57.782Z,6.63
2022-09-07T07:13:28.404Z,8.70
2022-09-07T07:16:06.348Z,4.70
2022-09-07T07:18:38.155Z,3.93
2022-09-07T07:21:10.931Z,6.50
2022-09-07T07:23:42.473Z,3.77
2022-09-07T07:26:16.227Z,5.30
2022-09-07T07:29:03.830Z,5.53
2022-09-07T07:31:21.459Z,8.60
2022-09-07T07:33:53.510Z,3.73
2022-09-07T07:36:25.953Z,5.13
2022-09-07T07:44:04.246Z,6.37
2022-09-07T07:46:34.880Z,3.63
2022-09-07T07:49:05.569Z,10.40
2022-09-07T07:54:08.668Z,6.57
2022-09-07T07:56:39.411Z,7.20
2022-09-07T07:59:15.048Z,13.67
2022-09-07T08:01:44.022Z,5.77
2022-09-07T08:04:14.824Z,3.87
2022-09-07T08:06:45.717Z,8.97
2022-09-07T08:09:16.484Z,6.07
2022-09-07T08:11:48.367Z,7.10
2022-09-07T08:14:18.938Z,3.37
2022-09-07T08:16:49.536Z,4.57
2022-09-07T08:19:20.055Z,5.53
2022-09-07T08:21:50.686Z,6.47
2022-09-07T08:24:21.382Z,5.10
2022-09-07T08:26:52.807Z,5.80
2022-09-07T08:29:23.541Z,4.67
2022-09-07T08:31:54.274Z,4.40
2022-09-07T08:34:25.121Z,4.37
2022-09-07T08:36:55.718Z,5.47
2022-09-07T08:39:26.300Z,4.17
2022-09-07T08:42:25.014Z,4.37
2022-09-07T08:44:58.481Z,5.73
2022-09-07T08:50:15.294Z,7.27
2022-09-07T08:52:49.967Z,6.80
2022-09-07T08:55:24.808Z,9.40
2022-09-07T08:57:59.571Z,4.10
2022-09-07T09:00:31.313Z,4.47
2022-09-07T09:08:28.266Z,7.07
2022-09-07T09:11:04.167Z,5.47
2022-09-07T09:13:52.281Z,3.77
2022-09-07T09:16:26.403Z,3.10
2022-09-07T09:19:06.327Z,4.53
2022-09-07T09:21:37.424Z,6.10
2022-09-07T09:26:54.861Z,5.20
2022-09-07T09:29:25.795Z,2.95
2022-09-07T09:31:56.754Z,8.40
2022-09-07T09:34:31.201Z,8.70
2022-09-07T09:36:59.743Z,5.80
2022-09-07T09:39:33.212Z,7.28
2022-09-07T09:42:16.415Z,5.72
2022-09-07T09:44:48.201Z,4.78
2022-09-07T09:47:31.691Z,8.20
2022-09-07T09:49:56.627Z,15.68
2022-09-07T09:52:31.807Z,20.70
2022-09-07T09:55:33.746Z,12.03
2022-09-07T10:00:29.915Z,7.00
2022-09-07T10:08:23.100Z,8.35
2022-09-07T10:10:59.843Z,8.53
2022-09-07T10:13:35.418Z,12.28
2022-09-07T10:16:09.618Z,5.47
2022-09-07T10:18:43.052Z,8.48
2022-09-07T10:21:29.234Z,6.15
2022-09-07T10:24:03.557Z,8.10
2022-09-07T10:26:36.535Z,4.33
2022-09-07T10:32:19.579Z,10.00
2022-09-07T10:34:57.224Z,7.28
2022-09-07T10:37:34.444Z,8.03
2022-09-07T10:40:27.932Z,3.40
2022-09-07T10:45:42.915Z,7.92
2022-09-07T10:48:17.117Z,10.70
2022-09-07T10:50:51.020Z,5.83
2022-09-07T10:53:41.715Z,5.95
2022-09-07T10:56:08.437Z,6.58
2022-09-07T10:59:03.901Z,6.25
2022-09-07T11:01:24.987Z,4.22
2022-09-07T11:04:06.574Z,5.10
2022-09-07T11:06:41.260Z,7.95
2022-09-07T11:09:32.575Z,10.00
2022-09-07T11:12:07.163Z,5.12
2022-09-07T11:14:42.943Z,5.70
2022-09-07T11:17:19.010Z,7.55
2022-09-07T11:22:37.213Z,9.20
2022-09-07T11:27:49.256Z,7.80
2022-09-07T11:30:23.884Z,9.58
2022-09-07T11:33:02.742Z,8.50
2022-09-07T11:35:44.262Z,7.95
2022-09-07T11:38:27.148Z,8.58
2022-09-07T11:44:09.987Z,5.17
2022-09-07T11:46:43.795Z,9.15
2022-09-07T11:49:20.569Z,5.40
2022-09-07T11:51:54.772Z,11.60
2022-09-07T11:54:43.230Z,8.53
2022-09-07T12:00:27.865Z,9.78
2022-09-07T12:07:01.177Z,8.85
2022-09-07T12:09:42.871Z,7.65
2022-09-07T12:12:50.509Z,7.50
2022-09-07T12:15:27.010Z,9.28
2022-09-07T12:18:06.309Z,7.05
2022-09-07T12:20:43.438Z,7.62
2022-09-07T12:23:31.578Z,7.35
2022-09-07T12:35:38.176Z,7.55
2022-09-07T12:38:30.305Z,8.70
2022-09-07T12:41:02.745Z,14.68
2022-09-07T12:43:43.823Z,7.60
2022-09-07T12:46:23.562Z,6.80
2022-09-07T12:54:15.196Z,13.90
2022-09-07T12:57:29.032Z,9.63
2022-09-07T12:59:45.387Z,15.70
2022-09-07T13:05:16.397Z,7.92
2022-09-07T13:08:17.212Z,9.53
2022-09-07T13:10:48.074Z,10.13
2022-09-07T13:16:17.641Z,8.45
2022-09-07T13:18:48.530Z,5.42
2022-09-07T13:21:41.685Z,5.50
2022-09-07T13:24:48.004Z,14.07
2022-09-07T13:27:36.780Z,8.98
2022-09-07T13:30:23.733Z,12.33
2022-09-07T13:33:08.699Z,9.13
2022-09-07T13:35:37.983Z,9.85
2022-09-07T13:38:13.678Z,10.53
2022-09-07T13:41:04.986Z,8.23
2022-09-07T13:43:37.746Z,6.05
2022-09-07T13:46:11.994Z,8.08
2022-09-07T13:48:46.483Z,7.22
2022-09-07T13:51:20.427Z,12.78
2022-09-07T13:54:00.370Z,9.85
2022-09-07T13:56:37.821Z,3.95
2022-09-07T13:59:18.648Z,9.73
2022-09-07T14:01:51.080Z,5.50
2022-09-07T14:04:28.185Z,6.40
2022-09-07T14:07:06.863Z,6.12
2022-09-07T14:09:37.914Z,5.75
2022-09-07T14:12:17.217Z,4.60
2022-09-07T14:14:48.354Z,6.62
2022-09-07T14:17:20.858Z,9.48
2022-09-07T14:19:52.925Z,6.95
2022-09-07T14:22:26.901Z,11.08
2022-09-07T14:24:59.294Z,7.87
2022-09-07T14:27:35.091Z,8.33
2022-09-07T14:30:29.121Z,10.50
2022-09-07T14:33:03.160Z,8.08
2022-09-07T14:35:37.712Z,12.68
2022-09-07T14:38:11.300Z,6.35
2022-09-07T14:40:42.751Z,13.15
2022-09-07T14:43:31.779Z,12.15
2022-09-07T14:46:17.671Z,8.10
2022-09-07T14:48:51.705Z,8.03
2022-09-07T14:51:35.229Z,13.25
2022-09-07T14:53:59.576Z,11.78
2022-09-07T14:56:33.028Z,14.13
2022-09-07T14:59:03.604Z,16.77
2022-09-07T15:01:38.932Z,14.47
2022-09-07T15:04:18.710Z,9.18
2022-09-07T15:07:04.555Z,11.88
2022-09-07T15:09:31.242Z,10.63
2022-09-07T15:12:30.093Z,11.00
2022-09-07T15:14:55.347Z,8.90
2022-09-07T15:17:44.547Z,9.38
2022-09-07T15:20:00.959Z,12.65
2022-09-07T15:22:40.668Z,10.20
2022-09-07T15:25:15.056Z,11.40
2022-09-07T15:27:45.819Z,10.15
2022-09-07T15:30:17.426Z,16.12
2022-09-07T15:32:49.324Z,11.73
2022-09-07T15:35:20.390Z,11.50
2022-09-07T15:38:59.431Z,9.75
2022-09-07T15:40:27.108Z,11.70
2022-09-07T15:43:02.049Z,11.08
2022-09-07T15:45:30.184Z,12.18
2022-09-07T15:48:00.883Z,10.13
2022-09-07T15:50:31.582Z,13.70
2022-09-07T15:53:02.767Z,7.20
2022-09-07T15:55:33.489Z,9.40
2022-09-07T15:58:11.707Z,11.43
2022-09-07T16:00:36.917Z,12.13
2022-09-07T16:03:08.623Z,14.20
2022-09-07T16:05:44.152Z,12.23
2022-09-07T16:11:05.766Z,14.33
2022-09-07T16:13:24.343Z,15.40
2022-09-07T16:15:55.343Z,12.03
2022-09-07T16:18:26.612Z,11.93
2022-09-07T16:20:58.583Z,14.63
2022-09-07T16:23:29.272Z,13.83
2022-09-07T16:26:01.356Z,13.03
2022-09-07T16:28:32.760Z,12.07
2022-09-07T16:31:09.004Z,8.37
2022-09-07T16:36:19.819Z,10.93
2022-09-07T16:38:51.813Z,10.97
2022-09-07T16:41:26.938Z,8.93
2022-09-07T16:43:59.195Z,11.17
2022-09-07T16:46:31.476Z,9.83
2022-09-07T16:49:02.354Z,8.50
2022-09-07T16:51:33.100Z,12.67
2022-09-07T16:54:03.868Z,6.58
2022-09-07T16:56:38.944Z,12.70
2022-09-07T16:59:10.148Z,9.80
2022-09-07T17:01:42.460Z,11.37
2022-09-07T17:04:13.684Z,5.90
2022-09-07T17:06:44.305Z,10.43
2022-09-07T17:09:15.387Z,9.23
2022-09-07T17:11:46.028Z,11.53
2022-09-07T17:14:16.857Z,10.07
2022-09-07T17:16:47.462Z,10.50
2022-09-07T17:19:33.693Z,7.07
2022-09-07T17:21:52.549Z,7.83
2022-09-07T17:24:23.572Z,8.27
2022-09-07T17:26:54.200Z,6.67
2022-09-07T17:29:24.896Z,8.23
2022-09-07T17:34:29.442Z,7.12
2022-09-07T17:37:03.210Z,7.77
2022-09-07T17:39:34.189Z,7.20
2022-09-07T17:42:04.980Z,10.07
2022-09-07T17:44:38.173Z,7.80
2022-09-07T17:47:08.121Z,11.30
2022-09-07T17:49:38.800Z,11.50
2022-09-07T17:52:09.345Z,11.57
2022-09-07T17:54:40.267Z,8.10
2022-09-07T17:57:10.791Z,11.60
2022-09-07T18:02:15.143Z,7.93
2022-09-07T18:04:45.727Z,16.67
2022-09-07T18:07:16.296Z,18.33
2022-09-07T18:09:47.034Z,18.63
2022-09-07T18:12:17.655Z,19.70
2022-09-07T18:14:48.156Z,16.50
2022-09-07T18:17:19.001Z,16.63
2022-09-07T18:19:49.773Z,10.63
2022-09-07T18:22:20.435Z,10.27
2022-09-07T18:24:52.299Z,12.70
2022-09-07T18:27:22.928Z,13.97
2022-09-07T18:29:53.512Z,11.73
2022-09-07T18:32:24.405Z,9.73
2022-09-07T18:34:54.944Z,9.33
2022-09-07T18:37:25.509Z,12.00
2022-09-07T18:39:56.346Z,11.27
2022-09-07T18:42:26.999Z,9.33
2022-09-07T18:47:31.465Z,11.70
2022-09-07T18:50:02.562Z,10.67
2022-09-07T18:55:07.198Z,13.93
2022-09-07T18:57:38.283Z,7.83
2022-09-07T19:00:12.707Z,7.87
2022-09-07T19:02:43.372Z,12.60
2022-09-07T19:07:46.322Z,16.17
2022-09-07T19:10:17.908Z,10.30
2022-09-07T19:12:48.411Z,8.67
2022-09-07T19:15:20.657Z,11.70
2022-09-07T19:17:51.151Z,10.77
2022-09-07T19:20:22.776Z,14.50
2022-09-07T19:22:53.580Z,10.80
2022-09-07T19:25:24.627Z,8.57
2022-09-07T19:27:55.144Z,12.63
2022-09-07T19:30:25.775Z,6.93
2022-09-07T19:32:59.668Z,8.40
2022-09-07T19:35:29.027Z,11.90
2022-09-07T19:37:59.663Z,9.57
2022-09-07T19:40:30.455Z,10.27
2022-09-07T19:43:02.672Z,13.23
2022-09-07T19:45:33.506Z,8.10
2022-09-07T19:48:04.658Z,8.87
2022-09-07T19:50:35.325Z,13.70
2022-09-07T19:53:06.153Z,14.97
2022-09-07T19:55:36.647Z,10.40
2022-09-07T19:58:07.898Z,8.03
2022-09-07T20:00:39.557Z,10.27
2022-09-07T20:03:10.789Z,14.37
2022-09-07T20:05:41.992Z,7.90
2022-09-07T20:08:12.876Z,7.20
2022-09-07T20:10:43.575Z,6.93
2022-09-07T20:13:14.441Z,6.20
2022-09-07T20:15:45.039Z,8.63
2022-09-07T20:18:15.556Z,9.63
2022-09-07T20:20:49.435Z,7.83
2022-09-07T20:23:20.094Z,9.33
2022-09-07T20:25:59.632Z,10.87
2022-09-07T20:28:31.447Z,7.53
2022-09-07T20:31:08.000Z,8.97
2022-09-07T20:33:35.721Z,10.07
2022-09-07T20:36:08.329Z,10.27
2022-09-07T20:38:42.924Z,10.33
2022-09-07T20:41:16.385Z,10.93
2022-09-07T20:43:46.966Z,12.57
2022-09-07T20:46:18.279Z,8.93
2022-09-07T20:48:49.261Z,11.97
2022-09-07T20:51:21.642Z,8.30
2022-09-07T20:53:52.455Z,7.07
2022-09-07T20:56:25.735Z,8.73
2022-09-07T20:59:00.179Z,7.80
2022-09-07T21:01:32.579Z,8.50
2022-09-07T21:04:04.155Z,9.57
2022-09-07T21:06:34.832Z,8.83
2022-09-07T21:09:05.500Z,13.97
2022-09-07T21:11:36.953Z,13.10
2022-09-07T21:14:10.809Z,6.67
2022-09-07T21:16:42.669Z,7.47
2022-09-07T21:19:13.384Z,7.60
2022-09-07T21:21:45.061Z,9.37
2022-09-07T21:24:19.553Z,9.20
2022-09-07T21:26:51.202Z,10.53
2022-09-07T21:29:24.952Z,20.63
2022-09-07T21:31:57.009Z,20.20
2022-09-07T21:34:27.562Z,17.27
2022-09-07T21:36:58.161Z,15.03
2022-09-07T21:39:28.888Z,8.73
2022-09-07T21:41:59.632Z,10.50
2022-09-07T21:44:31.271Z,6.90
2022-09-07T21:47:01.908Z,7.40
2022-09-07T21:49:32.522Z,8.27
2022-09-07T21:52:03.225Z,7.10
2022-09-07T21:54:33.970Z,7.40
2022-09-07T21:57:04.635Z,4.97
2022-09-07T21:59:35.181Z,7.93
2022-09-07T22:02:05.752Z,7.77
2022-09-07T22:04:36.390Z,6.10
2022-09-07T22:07:07.895Z,11.30
2022-09-07T22:09:38.489Z,8.67
2022-09-07T22:12:09.609Z,7.87
2022-09-07T22:14:40.112Z,8.23
2022-09-07T22:17:10.783Z,9.17
2022-09-07T22:19:42.138Z,4.30
2022-09-07T22:22:12.747Z,3.97
2022-09-07T22:24:43.241Z,4.67
2022-09-07T22:27:14.010Z,5.50
2022-09-07T22:29:45.118Z,5.73
2022-09-07T22:32:15.641Z,2.90
2022-09-07T22:34:46.165Z,4.70
2022-09-07T22:37:16.846Z,5.40
2022-09-07T22:39:47.530Z,3.37
2022-09-07T22:42:18.269Z,5.07
2022-09-07T22:47:38.171Z,5.77
2022-09-07T22:55:48.205Z,4.73
2022-09-07T22:58:18.732Z,3.47
2022-09-07T23:00:49.318Z,5.50
2022-09-07T23:03:21.406Z,20.37
2022-09-07T23:05:52.011Z,6.30
2022-09-07T23:08:22.966Z,5.77
2022-09-07T23:10:54.010Z,3.33
2022-09-07T23:13:24.826Z,6.23
2022-09-07T23:15:55.483Z,8.87
2022-09-07T23:18:26.100Z,5.20
2022-09-07T23:21:00.527Z,3.50
2022-09-07T23:23:31.683Z,4.00
2022-09-07T23:26:04.955Z,2.83
2022-09-07T23:28:35.949Z,2.93
2022-09-07T23:31:06.779Z,6.83
2022-09-07T23:33:37.449Z,5.30
2022-09-07T23:36:09.425Z,5.10
2022-09-07T23:38:40.205Z,4.40
2022-09-07T23:41:10.788Z,7.90
2022-09-07T23:43:41.852Z,3.70
2022-09-07T23:46:12.903Z,5.47
2022-09-07T23:48:45.263Z,4.37
2022-09-07T23:51:21.318Z,7.03
2022-09-07T23:53:49.204Z,4.87
2022-09-07T23:56:20.023Z,4.50
2022-09-07T23:58:50.531Z,4.40
